Time;durP1;ratioP1;P1;durP2;ratioP2;P2;SDS_P1;SDS_P2;PMS_P1;PMS_P2;Temp;Humidity;BMP_temperature;BMP_pressure;BME280_temperature;BME280_humidity;BME280_pressure;Samples;Min_cycle;Max_cycle;Signal;HPM_P1;HPM_P2
2021/08/11 00:01:45;;;;;;;3.93;3.17;;;19.60;99.90;19.40;97073.00;;;;5048460;28;20236;-84
2021/08/11 00:04:34;;;;;;;3.73;3.43;;;19.60;99.90;19.30;97070.00;;;;5049787;28;20249;-83
2021/08/11 00:07:23;;;;;;;6.00;4.00;;;19.50;99.90;19.30;97068.00;;;;5052630;28;20266;-84
2021/08/11 00:10:12;;;;;;;4.00;3.60;;;19.50;99.90;19.20;97074.00;;;;5033639;28;20216;-84
2021/08/11 00:13:03;;;;;;;3.93;3.30;;;19.50;99.90;19.20;97072.00;;;;5030667;28;20221;-84
2021/08/11 00:15:51;;;;;;;5.70;3.40;;;19.40;99.90;19.20;97066.00;;;;5031633;28;20209;-86
2021/08/11 00:18:40;;;;;;;5.03;3.83;;;19.40;99.90;19.10;97067.00;;;;5031904;28;20213;-85
2021/08/11 00:21:30;;;;;;;7.27;3.37;;;19.40;99.90;19.10;97078.00;;;;5031608;28;20217;-84
2021/08/11 00:24:19;;;;;;;4.47;3.20;;;19.30;99.90;18.90;97075.00;;;;5031628;28;20209;-83
2021/08/11 00:27:08;;;;;;;3.60;3.30;;;19.20;99.90;18.70;97088.00;;;;5031104;28;20603;-85
2021/08/11 00:30:00;;;;;;;3.67;2.70;;;19.20;99.90;18.80;97085.00;;;;5032234;28;20221;-84
2021/08/11 00:32:49;;;;;;;3.17;2.87;;;19.10;99.90;18.80;97077.00;;;;5031165;28;20225;-84
2021/08/11 00:35:38;;;;;;;4.27;3.33;;;19.10;99.90;18.80;97082.00;;;;5031036;28;20209;-83
2021/08/11 00:38:27;;;;;;;3.53;2.97;;;19.00;99.90;18.80;97083.00;;;;5030752;28;20194;-84
2021/08/11 00:41:17;;;;;;;3.97;3.50;;;19.00;99.90;18.80;97069.00;;;;5031040;28;20232;-83
2021/08/11 00:44:06;;;;;;;3.43;2.87;;;19.00;99.90;18.80;97072.00;;;;5030835;28;20201;-85
2021/08/11 00:46:58;;;;;;;5.07;2.77;;;19.00;99.90;18.70;97064.00;;;;5046680;28;20219;-85
2021/08/11 00:49:46;;;;;;;4.60;2.50;;;19.00;99.90;18.70;97061.00;;;;5050983;28;20672;-85
2021/08/11 00:52:35;;;;;;;2.87;2.63;;;18.90;99.90;18.70;97051.00;;;;5050170;28;20229;-86
2021/08/11 00:55:25;;;;;;;3.03;2.47;;;18.90;99.90;18.60;97039.00;;;;5051542;28;20215;-84
2021/08/11 00:58:15;;;;;;;2.50;2.20;;;18.90;99.90;18.50;97040.00;;;;5050827;28;20212;-84
2021/08/11 01:01:05;;;;;;;5.00;3.27;;;18.80;99.90;18.40;97042.00;;;;5052079;28;20220;-83
2021/08/11 01:04:00;;;;;;;3.73;3.23;;;18.80;99.90;18.30;97052.00;;;;5051733;28;20197;-85
2021/08/11 01:06:49;;;;;;;5.73;2.83;;;18.70;99.90;18.30;97037.00;;;;5049639;28;20236;-85
2021/08/11 01:09:39;;;;;;;4.20;2.70;;;18.70;99.90;18.40;97038.00;;;;5034207;28;20197;-83
2021/08/11 01:12:29;;;;;;;2.83;2.53;;;18.60;99.90;18.30;97037.00;;;;5030300;28;20611;-86
2021/08/11 01:15:18;;;;;;;3.57;2.57;;;18.60;99.90;18.10;97035.00;;;;5030762;28;20239;-85
2021/08/11 01:18:07;;;;;;;5.93;2.70;;;18.60;99.90;18.20;97048.00;;;;5030409;28;20205;-86
2021/08/11 01:21:05;;;;;;;4.57;2.73;;;18.50;99.90;18.20;97045.00;;;;5030985;28;20221;-84
2021/08/11 01:24:01;;;;;;;3.83;3.10;;;18.40;99.90;18.20;97047.00;;;;5029700;28;20221;-85
2021/08/11 01:27:26;;;;;;;6.47;3.00;;;18.40;99.90;18.10;97051.00;;;;5030928;28;20209;-86
2021/08/11 01:30:22;;;;;;;3.53;2.63;;;18.40;99.90;18.10;97047.00;;;;5021275;28;20236;-85
2021/08/11 01:33:45;;;;;;;4.13;3.13;;;18.40;99.90;18.20;97042.00;;;;5029310;28;20205;-85
2021/08/11 01:36:43;;;;;;;3.60;3.00;;;18.40;99.90;18.20;97046.00;;;;5031361;28;20375;-84
2021/08/11 01:39:35;;;;;;;4.63;2.97;;;18.40;99.90;18.20;97046.00;;;;5029998;28;20209;-86
2021/08/11 01:42:29;;;;;;;3.63;3.33;;;18.40;99.90;18.20;97045.00;;;;5029035;28;20205;-83
2021/08/11 01:45:24;;;;;;;3.60;3.03;;;18.40;99.90;18.20;97047.00;;;;5045532;28;20192;-86
2021/08/11 01:48:17;;;;;;;3.40;3.10;;;18.40;99.90;18.30;97038.00;;;;5069762;28;20219;-86
2021/08/11 01:51:08;;;;;;;3.63;2.80;;;18.40;99.90;18.30;97037.00;;;;5070210;28;20220;-85
2021/08/11 01:53:57;;;;;;;3.20;2.87;;;18.40;99.90;18.30;97031.00;;;;5068580;28;20196;-85
2021/08/11 01:56:46;;;;;;;4.10;2.87;;;18.40;99.90;18.30;97031.00;;;;5069326;28;20203;-85
2021/08/11 01:59:37;;;;;;;2.43;2.23;;;18.40;99.90;18.30;97039.00;;;;5069090;28;20200;-86
2021/08/11 02:02:27;;;;;;;3.30;2.60;;;18.40;99.90;18.40;97033.00;;;;5068541;28;20204;-86
2021/08/11 02:05:19;;;;;;;3.67;2.10;;;18.50;99.90;18.30;97038.00;;;;5069906;28;20211;-85
2021/08/11 02:08:10;;;;;;;4.93;3.17;;;18.50;99.90;18.40;97034.00;;;;5067628;28;20193;-86
2021/08/11 02:11:01;;;;;;;3.27;2.50;;;18.50;99.90;18.70;97025.00;;;;5050305;28;20232;-85
2021/08/11 02:13:51;;;;;;;4.43;2.57;;;18.60;99.90;18.50;97031.00;;;;5049207;28;20203;-85
2021/08/11 02:16:41;;;;;;;2.83;2.40;;;18.60;99.90;18.40;97022.00;;;;5048080;28;20686;-87
2021/08/11 02:19:30;;;;;;;3.43;2.67;;;18.60;99.90;18.50;97024.00;;;;5048883;28;20208;-86
2021/08/11 02:22:19;;;;;;;3.93;2.50;;;18.60;99.90;18.80;97031.00;;;;5049321;28;20607;-86
2021/08/11 02:25:13;;;;;;;4.67;2.27;;;18.70;99.90;18.70;97033.00;;;;5048661;28;20197;-88
2021/08/11 02:28:09;;;;;;;3.00;2.33;;;18.70;99.90;18.70;97030.00;;;;5048814;28;20204;-87
2021/08/11 02:31:07;;;;;;;3.17;2.43;;;18.80;99.90;18.70;97037.00;;;;5048267;28;20212;-86
2021/08/11 02:34:04;;;;;;;2.80;2.30;;;18.80;99.90;18.80;97028.00;;;;5047001;28;20208;-86
2021/08/11 02:37:00;;;;;;;3.27;2.87;;;18.80;99.90;18.80;97026.00;;;;5047716;28;20578;-87
2021/08/11 02:40:01;;;;;;;2.33;2.03;;;18.80;99.90;18.90;97022.00;;;;5048066;28;20201;-86
2021/08/11 02:42:59;;;;;;;3.00;2.80;;;18.90;99.90;18.90;97029.00;;;;5048252;28;20211;-87
2021/08/11 02:46:04;;;;;;;3.70;2.53;;;18.90;99.90;19.00;97030.00;;;;5059421;28;20192;-87
2021/08/11 02:48:59;;;;;;;4.53;2.63;;;19.00;99.90;19.00;97031.00;;;;5067703;28;20684;-87
2021/08/11 02:51:49;;;;;;;3.10;2.53;;;19.00;99.90;18.90;97027.00;;;;5068438;28;20227;-87
2021/08/11 02:54:41;;;;;;;3.30;2.10;;;19.00;99.90;18.80;97042.00;;;;5067939;28;20192;-87
2021/08/11 02:57:31;;;;;;;3.23;2.90;;;19.00;99.90;18.80;97040.00;;;;5040221;28;20200;-85
2021/08/11 03:00:21;;;;;;;3.70;2.33;;;19.00;99.90;18.70;97032.00;;;;5049556;28;20685;-86
2021/08/11 03:03:11;;;;;;;2.63;2.43;;;18.90;99.90;18.60;97042.00;;;;5047760;28;20209;-86
2021/08/11 03:06:00;;;;;;;4.13;2.03;;;18.80;99.90;18.60;97041.00;;;;5048419;28;20207;-84
2021/08/11 03:08:51;;;;;;;3.93;2.33;;;18.00;99.90;18.50;97034.00;;;;5039215;28;20209;-86
2021/08/11 03:11:41;;;;;;;4.53;2.80;;;18.70;99.90;18.50;97037.00;;;;5027864;28;20617;-85
2021/08/11 03:14:30;;;;;;;3.37;2.13;;;18.70;99.90;18.40;97042.00;;;;5027395;28;20397;-85
2021/08/11 03:17:20;;;;;;;4.07;2.63;;;18.60;99.90;18.30;97047.00;;;;5027927;28;20232;-87
2021/08/11 03:20:11;;;;;;;4.17;2.73;;;18.60;99.90;18.20;97047.00;;;;5027905;28;20223;-86
2021/08/11 03:23:00;;;;;;;3.63;2.80;;;18.50;99.90;18.20;97042.00;;;;5028689;28;20583;-87
2021/08/11 03:25:49;;;;;;;2.77;2.17;;;18.50;99.90;18.20;97042.00;;;;5026383;28;20206;-86
2021/08/11 03:28:38;;;;;;;3.23;2.30;;;18.40;99.90;18.10;97038.00;;;;5028552;28;20205;-88
2021/08/11 03:31:27;;;;;;;3.70;2.33;;;18.40;99.90;18.20;97035.00;;;;5023738;28;20228;-85
2021/08/11 03:34:17;;;;;;;2.13;1.93;;;18.30;99.90;18.00;97043.00;;;;5027589;28;20227;-85
2021/08/11 03:37:07;;;;;;;2.77;2.30;;;18.30;99.90;17.90;97044.00;;;;5028434;28;20697;-86
2021/08/11 03:39:57;;;;;;;3.63;2.10;;;18.30;99.90;17.90;97047.00;;;;5030389;28;20231;-86
2021/08/11 03:42:46;;;;;;;3.87;2.27;;;18.20;99.90;17.70;97052.00;;;;5032180;28;20514;-87
2021/08/11 03:45:35;;;;;;;3.30;2.50;;;18.10;99.90;17.70;97055.00;;;;5042972;28;20227;-87
2021/08/11 03:48:24;;;;;;;2.57;2.37;;;18.00;99.90;17.70;97055.00;;;;5051961;28;20234;-86
2021/08/11 03:51:15;;;;;;;3.80;2.80;;;18.00;99.90;17.70;97050.00;;;;5051543;28;20228;-85
2021/08/11 03:54:03;;;;;;;5.93;2.67;;;18.00;99.90;17.80;97056.00;;;;5052358;28;20200;-86
2021/08/11 03:56:52;;;;;;;3.43;2.50;;;17.90;99.90;17.70;97065.00;;;;5052567;28;20576;-87
2021/08/11 03:59:41;;;;;;;3.90;2.60;;;17.90;99.90;17.60;97065.00;;;;5051913;28;20565;-85
2021/08/11 04:02:31;;;;;;;3.17;2.87;;;17.90;99.90;17.60;97062.00;;;;5037716;28;20592;-87
2021/08/11 04:05:20;;;;;;;5.40;2.57;;;17.90;99.90;17.50;97067.00;;;;5033435;28;20232;-86
2021/08/11 04:08:11;;;;;;;6.37;2.80;;;17.80;99.90;17.50;97071.00;;;;5033190;28;20224;-87
2021/08/11 04:11:00;;;;;;;3.80;2.97;;;17.80;99.90;17.50;97080.00;;;;5033327;28;20228;-86
2021/08/11 04:13:49;;;;;;;5.63;2.93;;;17.80;99.90;17.50;97074.00;;;;5031812;28;20201;-86
2021/08/11 04:16:38;;;;;;;4.73;3.13;;;17.70;99.90;17.50;97080.00;;;;5032588;28;20198;-87
2021/08/11 04:19:27;;;;;;;3.43;3.00;;;17.70;99.90;17.50;97082.00;;;;5032996;28;20216;-86
2021/08/11 04:22:16;;;;;;;3.20;2.73;;;17.70;99.90;17.40;97087.00;;;;5033528;28;20292;-87
2021/08/11 04:25:08;;;;;;;3.63;2.27;;;17.70;99.90;17.40;97091.00;;;;5039146;28;20220;-86
2021/08/11 04:27:56;;;;;;;4.87;3.17;;;17.70;99.90;17.40;97098.00;;;;5052684;28;20201;-85
2021/08/11 04:30:46;;;;;;;2.57;2.37;;;17.70;99.90;17.20;97097.00;;;;5049382;28;20213;-86
2021/08/11 04:33:35;;;;;;;4.57;3.30;;;17.60;99.90;17.10;97098.00;;;;5041956;28;20201;-84
2021/08/11 04:36:24;;;;;;;3.23;2.93;;;17.50;99.90;17.20;97101.00;;;;5046015;28;20205;-86
2021/08/11 04:39:13;;;;;;;3.90;3.20;;;17.50;99.90;17.30;97099.00;;;;5051706;28;20212;-84
2021/08/11 04:42:04;;;;;;;4.30;3.70;;;17.50;99.90;17.30;97100.00;;;;5042817;28;20292;-85
2021/08/11 04:44:52;;;;;;;3.60;3.27;;;17.50;99.90;17.20;97104.00;;;;5039966;28;20223;-86
2021/08/11 04:47:41;;;;;;;2.60;2.40;;;17.50;99.90;17.10;97100.00;;;;5038075;28;20205;-86
2021/08/11 04:50:33;;;;;;;4.83;4.27;;;17.50;99.90;17.00;97099.00;;;;5039626;28;20221;-86
2021/08/11 04:53:22;;;;;;;3.20;2.40;;;17.40;99.90;16.90;97095.00;;;;5040588;28;20204;-86
2021/08/11 04:56:10;;;;;;;3.93;3.33;;;17.40;99.90;16.90;97101.00;;;;5047636;28;20743;-86
2021/08/11 04:59:01;;;;;;;4.67;3.03;;;17.30;99.90;16.70;97102.00;;;;5050613;28;20201;-85
2021/08/11 05:01:50;;;;;;;3.57;2.97;;;17.30;99.90;16.60;97105.00;;;;5049757;28;20236;-86
2021/08/11 05:04:39;;;;;;;5.23;2.87;;;17.20;99.90;16.60;97109.00;;;;5049771;28;20657;-87
2021/08/11 05:07:28;;;;;;;5.87;4.00;;;17.10;99.90;16.70;97097.00;;;;5049750;28;20201;-86
2021/08/11 05:10:18;;;;;;;4.10;3.67;;;17.00;99.90;16.90;97102.00;;;;5031023;28;20583;-86
2021/08/11 05:13:07;;;;;;;4.30;3.23;;;17.10;99.90;16.90;97098.00;;;;5029735;28;20213;-88
2021/08/11 05:15:58;;;;;;;3.77;3.20;;;17.10;99.90;16.70;97109.00;;;;5030833;28;20212;-87
2021/08/11 05:18:47;;;;;;;5.00;3.03;;;17.20;99.90;16.70;97093.00;;;;5032145;28;20201;-87
2021/08/11 05:21:37;;;;;;;3.47;3.07;;;17.20;99.90;17.20;97100.00;;;;5031498;28;20221;-85
2021/08/11 05:24:26;;;;;;;3.80;3.30;;;17.20;99.90;17.30;97093.00;;;;5029330;28;20232;-85
2021/08/11 05:27:16;;;;;;;8.50;6.47;;;17.40;99.90;17.40;97114.00;;;;5031702;28;20209;-87
2021/08/11 05:30:08;;;;;;;3.40;3.10;;;17.50;99.90;17.40;97106.00;;;;5032120;28;20619;-85
2021/08/11 05:32:58;;;;;;;3.10;2.83;;;17.60;99.90;17.60;97116.00;;;;5029975;28;20201;-87
2021/08/11 05:35:47;;;;;;;3.23;2.93;;;17.70;99.90;17.60;97121.00;;;;5031391;28;20197;-87
2021/08/11 05:38:38;;;;;;;4.93;3.47;;;17.80;99.90;17.60;97119.00;;;;5031055;28;20194;-85
2021/08/11 05:41:27;;;;;;;3.67;3.23;;;17.80;99.90;17.60;97116.00;;;;5030279;28;20244;-86
2021/08/11 05:44:16;;;;;;;3.67;3.37;;;17.80;99.90;17.80;97114.00;;;;5031526;28;20208;-86
2021/08/11 05:47:05;;;;;;;3.80;2.97;;;17.90;99.90;17.90;97116.00;;;;5030601;28;20599;-86
2021/08/11 05:49:55;;;;;;;2.83;2.60;;;18.00;99.90;18.10;97116.00;;;;5030941;28;20237;-88
2021/08/11 05:52:44;;;;;;;4.17;3.77;;;18.10;99.90;18.20;97114.00;;;;5032307;28;20209;-85
2021/08/11 05:55:33;;;;;;;6.13;3.43;;;18.30;99.90;18.40;97121.00;;;;5031864;28;20681;-84
2021/08/11 05:58:22;;;;;;;8.50;3.67;;;18.40;99.90;18.40;97110.00;;;;5033165;28;20216;-85
2021/08/11 06:01:11;;;;;;;5.57;4.07;;;18.50;99.90;18.60;97123.00;;;;5032063;28;20229;-83
2021/08/11 06:04:00;;;;;;;7.27;4.00;;;18.50;99.90;18.70;97128.00;;;;5029969;28;20198;-86
2021/08/11 06:06:52;;;;;;;5.80;4.00;;;18.60;99.90;18.80;97124.00;;;;5028246;28;20259;-85
2021/08/11 06:09:41;;;;;;;4.57;3.90;;;18.70;99.90;18.90;97125.00;;;;5046000;28;20596;-84
2021/08/11 06:12:37;;;;;;;4.50;4.10;;;18.80;99.90;18.90;97130.00;;;;5049839;28;20203;-88
2021/08/11 06:15:29;;;;;;;3.87;3.47;;;18.90;99.90;18.70;97140.00;;;;5048285;28;20677;-90
2021/08/11 06:18:21;;;;;;;3.67;3.37;;;18.90;99.90;18.80;97140.00;;;;5049308;28;20197;-84
2021/08/11 06:21:09;;;;;;;3.20;3.00;;;18.90;99.90;18.90;97141.00;;;;5049873;28;20224;-82
2021/08/11 06:24:00;;;;;;;5.23;3.70;;;18.90;99.90;19.00;97139.00;;;;5048901;28;20201;-85
2021/08/11 06:26:49;;;;;;;4.40;3.60;;;19.00;99.90;19.10;97136.00;;;;5049874;28;20231;-85
2021/08/11 06:29:38;;;;;;;5.50;3.77;;;19.00;99.90;19.10;97142.00;;;;5049780;28;20203;-82
2021/08/11 06:32:27;;;;;;;5.67;3.43;;;19.10;99.90;19.30;97138.00;;;;5049226;28;20209;-85
2021/08/11 06:35:16;;;;;;;4.27;3.87;;;19.00;99.90;19.30;97128.00;;;;5049787;28;20207;-83
2021/08/11 06:38:05;;;;;;;7.80;4.00;;;19.20;99.90;19.30;97131.00;;;;5050374;28;20207;-88
2021/08/11 06:40:55;;;;;;;4.33;3.90;;;19.30;99.90;19.60;97139.00;;;;5053087;28;20225;-83
2021/08/11 06:43:44;;;;;;;5.80;4.07;;;19.40;99.90;19.70;97136.00;;;;5046513;28;20212;-85
2021/08/11 06:46:35;;;;;;;4.00;3.60;;;19.50;99.90;19.90;97127.00;;;;5038719;28;20709;-85
2021/08/11 06:49:24;;;;;;;9.70;4.30;;;19.70;99.90;20.30;97126.00;;;;5040045;28;20270;-85
2021/08/11 06:52:12;;;;;;;5.63;5.13;;;19.90;99.90;20.70;97133.00;;;;5039793;28;20194;-84
2021/08/11 06:55:03;;;;;;;5.63;4.83;;;20.10;99.90;20.70;97126.00;;;;5037953;28;20193;-87
2021/08/11 06:57:53;;;;;;;6.03;4.75;;;20.40;99.90;20.80;97139.00;;;;5036817;28;20743;-85
2021/08/11 07:00:42;;;;;;;5.97;4.23;;;20.50;99.90;20.60;97132.00;;;;5037762;28;20235;-85
2021/08/11 07:03:34;;;;;;;7.90;4.93;;;20.60;99.90;21.30;97130.00;;;;5036420;28;20205;-84
2021/08/11 07:06:23;;;;;;;5.13;4.63;;;20.80;99.90;21.50;97146.00;;;;5039417;28;20454;-85
2021/08/11 07:09:11;;;;;;;4.90;4.40;;;21.00;99.90;21.80;97135.00;;;;5038531;28;20198;-85
2021/08/11 07:12:02;;;;;;;6.37;4.53;;;21.30;99.90;22.30;97139.00;;;;5038157;28;20637;-86
2021/08/11 07:14:53;;;;;;;6.67;4.07;;;21.60;99.90;22.20;97152.00;;;;5038215;28;20197;-84
2021/08/11 07:17:53;;;;;;;7.03;4.90;;;21.90;99.90;22.40;97154.00;;;;5043155;28;20202;-85
2021/08/11 07:20:42;;;;;;;5.73;4.20;;;22.10;99.90;22.60;97136.00;;;;5041061;28;20604;-85
2021/08/11 07:23:34;;;;;;;7.33;4.80;;;22.20;99.90;23.10;97147.00;;;;5040023;28;20204;-85
2021/08/11 07:26:23;;;;;;;5.47;4.50;;;22.50;99.90;23.30;97151.00;;;;5042038;28;20698;-86
2021/08/11 07:29:12;;;;;;;4.90;4.40;;;22.70;99.90;23.40;97148.00;;;;5041422;28;20197;-85
2021/08/11 07:32:03;;;;;;;6.37;4.30;;;22.90;99.90;23.50;97150.00;;;;5041300;28;20197;-87
2021/08/11 07:34:57;;;;;;;5.10;3.97;;;23.10;99.90;23.60;97152.00;;;;5040449;28;20204;-85
2021/08/11 07:37:49;;;;;;;6.43;4.60;;;23.20;99.90;23.80;97156.00;;;;5041278;28;20212;-87
2021/08/11 07:40:39;;;;;;;5.30;4.80;;;23.40;99.90;24.10;97151.00;;;;5040745;28;20224;-86
2021/08/11 07:43:28;;;;;;;6.67;4.53;;;23.60;99.90;24.30;97149.00;;;;5041343;28;20205;-87
2021/08/11 07:46:17;;;;;;;6.00;5.23;;;23.80;99.90;24.70;97151.00;;;;5040949;28;20221;-85
2021/08/11 07:49:07;;;;;;;5.20;3.77;;;24.00;99.90;24.70;97144.00;;;;5048946;28;20713;-84
2021/08/11 07:51:56;;;;;;;6.70;4.77;;;24.40;99.90;24.90;97150.00;;;;5050791;28;20200;-86
2021/08/11 07:54:45;;;;;;;4.73;4.23;;;24.40;99.90;25.00;97156.00;;;;5050639;28;20200;-87
2021/08/11 07:57:34;;;;;;;7.63;4.30;;;24.50;99.90;24.70;97145.00;;;;5051293;28;20224;-86
2021/08/11 08:00:23;;;;;;;7.43;5.57;;;24.50;99.90;24.90;97158.00;;;;5051452;28;20321;-86
2021/08/11 08:03:12;;;;;;;6.40;5.40;;;24.60;99.90;25.10;97151.00;;;;5050895;28;20250;-85
2021/08/11 08:06:03;;;;;;;5.17;4.60;;;24.70;99.90;25.30;97152.00;;;;5049912;28;20224;-86
2021/08/11 08:08:52;;;;;;;5.33;4.30;;;24.90;99.90;25.20;97150.00;;;;5042225;28;20195;-85
2021/08/11 08:11:41;;;;;;;4.47;4.10;;;24.90;99.90;25.10;97145.00;;;;5032277;28;20693;-86
2021/08/11 08:14:30;;;;;;;4.90;4.40;;;25.00;99.90;25.40;97164.00;;;;5031382;28;20798;-86
2021/08/11 08:17:19;;;;;;;6.00;4.70;;;25.10;99.90;25.70;97148.00;;;;5031916;28;20255;-86
2021/08/11 08:20:09;;;;;;;5.33;4.30;;;25.20;99.90;26.00;97138.00;;;;5032215;28;20223;-86
2021/08/11 08:22:59;;;;;;;4.77;4.37;;;25.40;99.90;25.90;97147.00;;;;5030973;28;20218;-85
2021/08/11 08:25:49;;;;;;;5.37;4.87;;;25.50;99.90;25.70;97159.00;;;;5031808;28;20215;-86
2021/08/11 08:28:38;;;;;;;6.80;4.67;;;25.60;99.90;25.50;97173.00;;;;5031212;28;20209;-86
2021/08/11 08:31:27;;;;;;;5.57;4.93;;;25.40;99.90;24.90;97170.00;;;;5031667;28;20225;-85
2021/08/11 08:34:16;;;;;;;5.17;4.67;;;25.20;99.90;24.90;97150.00;;;;5036079;28;20205;-86
2021/08/11 08:37:05;;;;;;;7.40;5.00;;;25.00;99.90;25.20;97155.00;;;;5031108;28;20203;-87
2021/08/11 08:39:55;;;;;;;4.50;4.10;;;25.00;99.90;25.20;97159.00;;;;5033361;28;20234;-86
2021/08/11 08:42:45;;;;;;;7.30;5.13;;;25.00;99.90;25.60;97149.00;;;;5045756;28;20198;-87
2021/08/11 08:45:36;;;;;;;6.70;5.03;;;25.10;99.90;25.80;97148.00;;;;5049479;28;20269;-86
2021/08/11 08:48:26;;;;;;;6.03;5.20;;;25.20;99.90;26.10;97152.00;;;;5038855;28;20201;-86
2021/08/11 08:51:17;;;;;;;7.93;5.00;;;25.40;99.90;26.20;97153.00;;;;5048597;28;20216;-87
2021/08/11 08:54:06;;;;;;;5.10;4.70;;;25.60;99.90;26.30;97156.00;;;;5031743;28;20209;-88
2021/08/11 08:56:57;;;;;;;5.53;4.10;;;25.80;99.90;26.30;97156.00;;;;5030941;28;20583;-87
2021/08/11 08:59:46;;;;;;;5.77;4.80;;;25.90;99.90;26.20;97150.00;;;;5045077;28;20224;-87
2021/08/11 09:02:39;;;;;;;6.33;4.27;;;26.00;99.90;26.50;97158.00;;;;5050703;28;20206;-87
2021/08/11 09:05:28;;;;;;;6.40;4.90;;;25.80;99.90;26.90;97164.00;;;;5036570;28;20201;-88
2021/08/11 09:08:17;;;;;;;4.87;4.20;;;26.30;99.90;27.20;97159.00;;;;5038591;28;20216;-87
2021/08/11 09:11:15;;;;;;;5.60;5.10;;;26.40;99.90;27.10;97150.00;;;;5037559;28;20228;-86
2021/08/11 09:14:22;;;;;;;7.90;4.60;;;26.60;99.90;27.50;97156.00;;;;5038157;28;20668;-89
2021/08/11 09:17:12;;;;;;;5.07;4.57;;;26.80;99.90;27.70;97152.00;;;;5035369;28;20206;-87
2021/08/11 09:20:01;;;;;;;4.40;4.00;;;27.00;99.90;27.70;97154.00;;;;5030783;28;20219;-87
2021/08/11 09:22:53;;;;;;;5.87;4.07;;;27.10;99.90;27.80;97149.00;;;;5029713;28;20215;-88
2021/08/11 09:26:04;;;;;;;3.40;3.10;;;27.30;99.90;27.70;97145.00;;;;5028751;28;20258;-88
2021/08/11 09:29:07;;;;;;;3.87;3.23;;;27.40;99.90;27.90;97145.00;;;;5033210;28;20203;-88
2021/08/11 09:32:08;;;;;;;5.93;3.77;;;27.40;99.90;28.10;97137.00;;;;5029707;28;20685;-88
2021/08/11 09:34:57;;;;;;;4.43;4.03;;;27.50;99.90;28.10;97136.00;;;;5029425;28;20207;-87
2021/08/11 09:37:48;;;;;;;3.47;3.17;;;28.40;99.80;28.10;97130.00;;;;5030498;28;20212;-88
2021/08/11 09:40:39;;;;;;;4.60;3.97;;;27.80;96.00;27.90;97136.00;;;;5030737;28;20298;-87
2021/08/11 09:43:35;;;;;;;4.00;3.40;;;27.80;93.20;28.60;97138.00;;;;5030334;28;20212;-87
2021/08/11 09:46:30;;;;;;;4.60;3.20;;;27.80;94.40;28.70;97128.00;;;;5055426;28;20203;-87
2021/08/11 09:49:24;;;;;;;3.87;2.93;;;28.00;91.40;29.00;97120.00;;;;5058793;28;20585;-88
2021/08/11 09:52:13;;;;;;;4.27;2.97;;;28.20;91.20;29.30;97132.00;;;;5049312;28;20205;-89
2021/08/11 09:55:01;;;;;;;3.63;2.83;;;28.50;91.00;29.00;97130.00;;;;5049181;28;21055;-89
2021/08/11 09:57:51;;;;;;;4.73;2.80;;;28.60;80.00;29.30;97128.00;;;;5048424;28;20686;-88
2021/08/11 10:00:40;;;;;;;3.40;3.10;;;28.70;82.20;29.50;97131.00;;;;5053941;28;20273;-89
2021/08/11 10:03:29;;;;;;;4.87;3.57;;;28.80;81.40;29.60;97128.00;;;;5054768;28;20201;-87
2021/08/11 10:06:27;;;;;;;3.80;3.20;;;28.80;80.60;28.50;97129.00;;;;5054351;28;20287;-86
2021/08/11 10:09:17;;;;;;;3.37;3.07;;;29.00;73.00;28.80;97119.00;;;;5048104;28;20568;-87
2021/08/11 10:12:07;;;;;;;2.73;2.53;;;28.80;74.80;29.70;97118.00;;;;5048729;28;20200;-87
2021/08/11 10:14:58;;;;;;;2.87;2.53;;;28.90;78.60;30.10;97120.00;;;;5047895;28;20599;-86
2021/08/11 10:17:50;;;;;;;4.00;2.73;;;29.10;78.00;30.20;97117.00;;;;5048307;28;20205;-86
2021/08/11 10:20:41;;;;;;;3.27;2.90;;;29.40;76.60;30.40;97116.00;;;;5048372;28;20236;-88
2021/08/11 10:23:32;;;;;;;3.90;3.20;;;29.60;76.00;30.40;97116.00;;;;5048308;28;20205;-89
2021/08/11 10:26:20;;;;;;;4.93;3.27;;;29.80;71.60;29.90;97122.00;;;;5048159;28;20213;-86
2021/08/11 10:29:10;;;;;;;3.00;2.60;;;29.80;67.60;30.40;97113.00;;;;5048393;28;20195;-86
2021/08/11 10:32:00;;;;;;;4.17;3.37;;;29.80;67.40;30.70;97123.00;;;;5048180;28;20211;-85
2021/08/11 10:34:50;;;;;;;5.18;3.10;;;30.00;69.40;30.90;97109.00;;;;5048143;28;20205;-84
2021/08/11 10:37:41;;;;;;;3.47;2.63;;;30.10;69.50;30.60;97111.00;;;;5048301;28;20207;-87
2021/08/11 10:40:32;;;;;;;3.70;3.13;;;30.20;64.80;31.30;97109.00;;;;5054843;28;20606;-86
2021/08/11 10:43:22;;;;;;;3.53;3.22;;;30.40;66.00;31.50;97110.00;;;;5057442;28;20198;-86
2021/08/11 10:46:16;;;;;;;3.10;2.80;;;30.70;66.30;31.70;97096.00;;;;5052372;28;20594;-86
2021/08/11 10:49:07;;;;;;;3.83;3.22;;;30.90;66.70;32.20;97091.00;;;;5049104;28;20215;-86
2021/08/11 10:51:59;;;;;;;3.75;3.05;;;31.20;66.30;32.60;97098.00;;;;5048615;28;20231;-86
2021/08/11 10:54:53;;;;;;;3.25;2.95;;;31.40;65.70;32.40;97098.00;;;;5047605;28;20289;-86
2021/08/11 10:57:48;;;;;;;4.07;3.10;;;31.70;65.10;32.00;97087.00;;;;5048206;28;20210;-85
2021/08/11 11:00:42;;;;;;;3.90;3.50;;;31.60;63.10;32.80;97088.00;;;;5048677;28;20762;-86
2021/08/11 11:03:51;;;;;;;6.10;3.55;;;31.80;63.70;32.90;97089.00;;;;5045699;28;20207;-85
2021/08/11 11:07:15;;;;;;;4.68;3.08;;;32.00;62.70;32.80;97082.00;;;;5047025;28;20253;-85
2021/08/11 11:10:26;;;;;;;7.88;3.30;;;32.10;61.40;33.00;97077.00;;;;5028415;28;20230;-85
2021/08/11 11:13:41;;;;;;;4.18;3.00;;;32.30;62.20;33.30;97076.00;;;;5026597;28;20203;-86
2021/08/11 11:17:11;;;;;;;5.35;4.28;;;32.50;61.50;33.20;97065.00;;;;5027968;28;20210;-85
2021/08/11 11:20:30;;;;;;;3.70;3.17;;;32.60;61.00;33.20;97053.00;;;;5028171;28;20229;-85
2021/08/11 11:23:32;;;;;;;3.65;3.30;;;32.80;59.80;33.70;97075.00;;;;5026583;28;20208;-85
2021/08/11 11:26:33;;;;;;;14.10;3.47;;;33.00;59.10;33.00;97062.00;;;;5033147;28;20203;-87
2021/08/11 11:29:48;;;;;;;4.53;3.63;;;32.70;59.00;32.40;97076.00;;;;5035674;28;20269;-86
2021/08/11 11:32:38;;;;;;;4.20;2.95;;;32.70;58.90;32.80;97036.00;;;;5033848;28;20729;-86
2021/08/11 11:35:28;;;;;;;5.32;3.47;;;32.80;58.20;32.90;97086.00;;;;5048014;28;20211;-87
2021/08/11 11:38:18;;;;;;;3.58;3.15;;;32.60;57.50;32.20;97090.00;;;;5045811;28;20200;-86
2021/08/11 11:41:07;;;;;;;3.90;2.90;;;32.30;58.40;32.70;97060.00;;;;5035873;28;20221;-86
2021/08/11 11:43:57;;;;;;;4.82;3.20;;;32.20;58.20;32.00;97097.00;;;;5046094;28;20208;-87
2021/08/11 11:46:50;;;;;;;3.75;3.45;;;32.00;58.80;31.20;97094.00;;;;5066805;28;20212;-87
2021/08/11 11:49:40;;;;;;;3.28;2.92;;;31.70;59.70;30.80;97094.00;;;;5065922;28;20677;-86
2021/08/11 11:52:30;;;;;;;6.53;4.20;;;31.30;59.70;29.90;97093.00;;;;5035940;28;20196;-87
2021/08/11 11:55:28;;;;;;;3.60;3.30;;;30.90;58.90;29.50;97086.00;;;;5042743;28;20207;-87
2021/08/11 11:58:19;;;;;;;4.00;3.35;;;29.50;59.10;29.00;97084.00;;;;5049664;28;20215;-87
2021/08/11 12:01:10;;;;;;;4.30;3.38;;;30.00;60.20;28.40;97081.00;;;;5040940;28;20217;-86
2021/08/11 12:04:01;;;;;;;3.80;2.97;;;29.50;60.00;28.20;97082.00;;;;5038173;28;20201;-87
2021/08/11 12:06:50;;;;;;;9.45;3.35;;;28.90;63.10;28.20;97084.00;;;;5039486;28;20210;-86
2021/08/11 12:09:45;;;;;;;4.07;2.92;;;28.60;65.70;27.50;97083.00;;;;5034995;28;20246;-87
2021/08/11 12:12:34;;;;;;;4.57;3.30;;;28.30;72.70;26.70;97079.00;;;;5035201;28;20225;-88
2021/08/11 12:15:24;;;;;;;3.80;2.80;;;27.70;78.80;25.60;97092.00;;;;5042645;28;20211;-87
2021/08/11 12:18:15;;;;;;;3.93;2.90;;;27.10;88.20;25.40;97086.00;;;;5046131;28;20238;-87
2021/08/11 12:21:06;;;;;;;3.80;3.17;;;26.50;92.70;24.90;97094.00;;;;5045344;28;20235;-87
2021/08/11 12:23:55;;;;;;;4.10;3.17;;;26.10;96.70;24.30;97011.00;;;;5036766;28;20202;-86
2021/08/11 12:26:44;;;;;;;5.30;3.97;;;25.70;99.90;25.10;97026.00;;;;5038018;28;20620;-86
2021/08/11 12:29:33;;;;;;;6.40;2.97;;;25.70;99.90;26.10;97019.00;;;;5040966;28;20459;-86
2021/08/11 12:32:24;;;;;;;5.27;3.60;;;25.90;99.90;25.70;97008.00;;;;5038148;28;20251;-87
2021/08/11 12:35:13;;;;;;;4.33;3.07;;;26.00;99.90;26.60;97013.00;;;;5039149;28;20196;-86
2021/08/11 12:38:04;;;;;;;3.90;3.50;;;26.20;99.90;27.30;97011.00;;;;5051922;28;20198;-87
2021/08/11 12:40:53;;;;;;;4.40;3.03;;;26.60;99.90;27.80;97034.00;;;;5036087;28;20228;-88
2021/08/11 12:43:42;;;;;;;7.23;6.73;;;27.00;99.90;27.60;97003.00;;;;5039818;28;20206;-86